createdAt,value
2022-12-17T00:00:28.473Z,28.40
2022-12-17T00:03:19.465Z,35.70
2022-12-17T00:06:11.376Z,28.90
2022-12-17T00:09:01.873Z,33.20
2022-12-17T00:11:52.304Z,37.97
2022-12-17T00:14:46.315Z,39.00
2022-12-17T00:17:36.758Z,38.77
2022-12-17T00:20:27.698Z,32.33
2022-12-17T00:23:22.701Z,32.30
2022-12-17T00:26:15.167Z,28.40
2022-12-17T00:29:05.509Z,29.10
2022-12-17T00:31:56.335Z,30.53
2022-12-17T00:34:46.799Z,26.30
2022-12-17T00:37:37.187Z,28.77
2022-12-17T00:40:28.108Z,28.03
2022-12-17T00:43:22.650Z,30.13
2022-12-17T00:46:12.985Z,35.07
2022-12-17T00:49:03.692Z,36.30
2022-12-17T00:51:54.065Z,30.17
2022-12-17T00:54:44.519Z,32.40
2022-12-17T00:57:35.907Z,30.27
2022-12-17T01:00:27.106Z,37.20
2022-12-17T01:03:29.025Z,31.40
2022-12-17T01:06:22.394Z,33.67
2022-12-17T01:09:12.921Z,32.30
2022-12-17T01:12:03.330Z,34.13
2022-12-17T01:14:54.907Z,34.20
2022-12-17T01:17:45.135Z,35.33
2022-12-17T01:20:35.671Z,36.63
2022-12-17T01:23:27.210Z,36.47
2022-12-17T01:26:18.223Z,25.80
2022-12-17T01:29:08.661Z,37.07
2022-12-17T01:31:59.367Z,31.80
2022-12-17T01:34:49.647Z,40.17
2022-12-17T01:37:40.103Z,34.43
2022-12-17T01:40:30.637Z,35.83
2022-12-17T01:43:21.015Z,44.77
2022-12-17T01:46:11.541Z,25.77
2022-12-17T01:49:04.658Z,32.83
2022-12-17T01:51:55.094Z,33.33
2022-12-17T01:54:45.540Z,27.90
2022-12-17T01:57:35.842Z,31.83
2022-12-17T02:00:30.796Z,29.90
2022-12-17T02:03:21.920Z,25.43
2022-12-17T02:06:26.614Z,32.27
2022-12-17T02:09:28.641Z,28.93
2022-12-17T02:12:32.675Z,33.87
2022-12-17T02:15:45.667Z,37.47
2022-12-17T02:18:44.169Z,30.67
2022-12-17T02:21:48.251Z,29.70
2022-12-17T02:24:57.549Z,30.53
2022-12-17T02:27:49.961Z,32.90
2022-12-17T02:30:40.511Z,22.37
2022-12-17T02:33:31.868Z,29.60
2022-12-17T02:36:25.050Z,26.33
2022-12-17T02:39:15.426Z,28.67
2022-12-17T02:42:12.350Z,33.53
2022-12-17T02:45:02.996Z,33.90
2022-12-17T02:47:54.298Z,27.43
2022-12-17T02:50:44.661Z,22.47
2022-12-17T02:53:35.499Z,30.03
2022-12-17T02:56:36.757Z,27.50
2022-12-17T02:59:27.213Z,25.70
2022-12-17T03:02:17.663Z,27.43
2022-12-17T03:05:35.613Z,25.20
2022-12-17T03:08:18.749Z,32.00
2022-12-17T03:11:09.159Z,30.57
2022-12-17T03:13:59.695Z,27.37
2022-12-17T03:16:50.199Z,30.07
2022-12-17T03:19:40.666Z,32.00
2022-12-17T03:22:31.112Z,28.77
2022-12-17T03:25:21.566Z,31.67
2022-12-17T03:28:11.982Z,24.87
2022-12-17T03:31:02.462Z,33.63
2022-12-17T03:33:52.817Z,30.27
2022-12-17T03:36:43.190Z,25.90
2022-12-17T03:39:33.605Z,28.87
2022-12-17T03:42:24.194Z,30.47
2022-12-17T03:45:14.760Z,23.77
2022-12-17T03:48:05.374Z,27.00
2022-12-17T03:50:55.896Z,20.23
2022-12-17T03:53:46.230Z,24.37
2022-12-17T03:56:36.657Z,24.97
2022-12-17T03:59:27.009Z,23.37
2022-12-17T04:02:18.197Z,29.03
2022-12-17T04:05:08.636Z,20.07
2022-12-17T04:08:01.057Z,22.93
2022-12-17T04:10:51.516Z,33.43
2022-12-17T04:13:42.128Z,31.30
2022-12-17T04:16:33.004Z,35.40
2022-12-17T04:19:23.462Z,25.53
2022-12-17T04:22:13.881Z,25.80
2022-12-17T04:25:04.283Z,28.30
2022-12-17T04:27:54.861Z,26.70
2022-12-17T04:30:45.341Z,31.30
2022-12-17T04:33:36.119Z,30.80
2022-12-17T04:36:26.919Z,28.47
2022-12-17T04:39:17.295Z,22.50
2022-12-17T04:42:07.689Z,29.57
2022-12-17T04:44:58.079Z,21.63
2022-12-17T04:47:48.621Z,33.93
2022-12-17T04:50:39.125Z,30.63
2022-12-17T04:53:29.723Z,22.33
2022-12-17T04:56:20.208Z,24.33
2022-12-17T04:59:10.927Z,23.93
2022-12-17T05:02:01.346Z,27.07
2022-12-17T05:04:51.599Z,30.93
2022-12-17T05:07:42.128Z,27.80
2022-12-17T05:10:32.408Z,21.90
2022-12-17T05:13:22.629Z,17.90
2022-12-17T05:16:16.529Z,21.13
2022-12-17T05:19:07.039Z,27.97
2022-12-17T05:21:57.381Z,27.03
2022-12-17T05:24:48.001Z,19.57
2022-12-17T05:27:45.963Z,22.27
2022-12-17T05:30:36.261Z,23.40
2022-12-17T05:33:27.238Z,25.67
2022-12-17T05:36:21.250Z,23.90
2022-12-17T05:39:11.603Z,18.57
2022-12-17T05:42:01.958Z,21.73
2022-12-17T05:44:52.481Z,21.73
2022-12-17T05:47:42.950Z,17.07
2022-12-17T05:50:33.389Z,20.87
2022-12-17T05:53:24.811Z,25.23
2022-12-17T05:56:15.301Z,29.45
2022-12-17T05:59:05.910Z,29.03
2022-12-17T06:01:56.451Z,30.47
2022-12-17T06:04:47.070Z,30.30
2022-12-17T06:07:37.595Z,26.73
2022-12-17T06:10:28.057Z,37.83
2022-12-17T06:13:18.381Z,33.20
2022-12-17T06:16:09.308Z,29.93
2022-12-17T06:18:59.498Z,34.37
2022-12-17T06:21:50.174Z,25.80
2022-12-17T06:24:45.686Z,32.40
2022-12-17T06:27:56.532Z,38.50
2022-12-17T06:30:46.710Z,25.30
2022-12-17T06:33:37.480Z,36.13
2022-12-17T06:36:28.113Z,36.43
2022-12-17T06:39:18.448Z,33.27
2022-12-17T06:42:08.938Z,42.50
2022-12-17T06:44:59.417Z,31.23
2022-12-17T06:47:49.786Z,41.73
2022-12-17T06:50:40.424Z,45.97
2022-12-17T06:53:30.850Z,58.87
2022-12-17T06:56:21.459Z,55.60
2022-12-17T06:59:11.934Z,46.10
2022-12-17T07:02:02.400Z,45.77
2022-12-17T07:04:53.111Z,48.90
2022-12-17T07:07:43.669Z,55.93
2022-12-17T07:10:34.157Z,55.40
2022-12-17T07:13:26.158Z,74.50
2022-12-17T07:16:16.675Z,41.57
2022-12-17T07:19:07.234Z,37.63
2022-12-17T07:21:57.627Z,55.83
2022-12-17T07:24:58.719Z,50.60
2022-12-17T07:27:49.159Z,60.10
2022-12-17T07:30:39.563Z,75.83
2022-12-17T07:33:29.969Z,49.67
2022-12-17T07:36:20.378Z,64.97
2022-12-17T07:39:11.142Z,45.30
2022-12-17T07:42:01.370Z,60.03
2022-12-17T07:44:51.817Z,91.70
2022-12-17T07:47:42.563Z,93.07
2022-12-17T07:50:33.066Z,76.37
2022-12-17T07:53:24.197Z,55.20
2022-12-17T07:56:14.728Z,57.03
2022-12-17T07:59:05.342Z,74.20
2022-12-17T08:02:06.721Z,48.63
2022-12-17T08:04:57.286Z,63.23
2022-12-17T08:07:47.764Z,59.23
2022-12-17T08:10:38.185Z,77.07
2022-12-17T08:13:28.633Z,49.90
2022-12-17T08:16:19.334Z,66.73
2022-12-17T08:19:10.675Z,53.13
2022-12-17T08:22:01.077Z,53.20
2022-12-17T08:24:51.501Z,78.20
2022-12-17T08:27:41.945Z,63.97
2022-12-17T08:30:32.586Z,76.33
2022-12-17T08:33:24.229Z,39.13
2022-12-17T08:36:16.515Z,53.40
2022-12-17T08:39:06.961Z,67.27
2022-12-17T08:42:02.501Z,44.87
2022-12-17T08:44:54.662Z,54.30
2022-12-17T08:47:47.682Z,59.43
2022-12-17T08:50:38.101Z,58.83
2022-12-17T08:53:33.293Z,42.43
2022-12-17T08:56:25.641Z,46.43
2022-12-17T08:59:16.145Z,39.47
2022-12-17T09:02:06.752Z,88.10
2022-12-17T09:04:57.043Z,82.40
2022-12-17T09:07:47.367Z,74.70
2022-12-17T09:10:37.828Z,88.73
2022-12-17T09:13:28.377Z,49.43
2022-12-17T09:16:18.892Z,87.30
2022-12-17T09:19:09.295Z,44.33
2022-12-17T09:21:59.851Z,42.77
2022-12-17T09:24:50.215Z,59.20
2022-12-17T09:27:40.768Z,45.53
2022-12-17T09:30:31.405Z,52.30
2022-12-17T09:33:21.627Z,63.50
2022-12-17T09:36:11.958Z,40.20
2022-12-17T09:39:02.401Z,54.33
2022-12-17T09:42:34.186Z,39.83
2022-12-17T09:45:41.973Z,86.90
2022-12-17T09:49:11.162Z,38.70
2022-12-17T09:52:01.555Z,48.17
2022-12-17T09:55:02.692Z,56.47
2022-12-17T09:57:55.774Z,51.53
2022-12-17T10:00:47.813Z,65.83
2022-12-17T10:03:41.427Z,65.03
2022-12-17T10:06:53.735Z,63.20
2022-12-17T10:09:47.090Z,66.47
2022-12-17T10:12:38.971Z,67.50
2022-12-17T10:15:33.369Z,70.83
2022-12-17T10:18:26.100Z,95.40
2022-12-17T10:21:23.698Z,61.07
2022-12-17T10:24:34.068Z,108.50
2022-12-17T10:27:28.912Z,93.35
2022-12-17T10:30:19.393Z,70.20
2022-12-17T10:33:15.583Z,74.20
2022-12-17T10:36:06.033Z,56.57
2022-12-17T10:38:56.404Z,53.20
2022-12-17T10:41:54.031Z,62.47
2022-12-17T10:44:55.916Z,52.37
2022-12-17T10:47:46.737Z,65.70
2022-12-17T10:50:40.102Z,67.57
2022-12-17T10:53:42.353Z,55.60
2022-12-17T10:56:44.095Z,53.83
2022-12-17T10:59:50.710Z,55.50
2022-12-17T11:02:46.117Z,55.37
2022-12-17T11:05:51.163Z,52.53
2022-12-17T11:08:43.182Z,57.67
2022-12-17T11:11:34.621Z,58.17
2022-12-17T11:14:29.796Z,52.37
2022-12-17T11:17:23.655Z,50.00
2022-12-17T11:20:19.506Z,56.07
2022-12-17T11:23:17.237Z,48.43
2022-12-17T11:26:20.918Z,47.60
2022-12-17T11:29:11.305Z,54.47
2022-12-17T11:32:49.856Z,39.80
2022-12-17T11:35:52.312Z,56.97
2022-12-17T11:39:01.032Z,50.27
2022-12-17T11:42:11.238Z,45.47
2022-12-17T11:45:26.162Z,38.03
2022-12-17T11:48:27.238Z,40.20
2022-12-17T11:51:29.710Z,58.33
2022-12-17T11:54:29.132Z,41.77
2022-12-17T11:57:45.941Z,48.20
2022-12-17T12:00:39.501Z,38.80
2022-12-17T12:03:47.987Z,43.90
2022-12-17T12:07:17.164Z,37.13
2022-12-17T12:10:31.043Z,49.07
2022-12-17T12:13:30.565Z,57.80
2022-12-17T12:16:24.070Z,65.40
2022-12-17T12:19:55.309Z,52.80
2022-12-17T12:22:56.147Z,59.40
2022-12-17T12:25:59.135Z,77.30
2022-12-17T12:28:59.723Z,59.33
2022-12-17T12:32:06.223Z,56.73
2022-12-17T12:34:57.954Z,50.50
2022-12-17T12:37:49.351Z,52.50
2022-12-17T12:40:47.736Z,53.17
2022-12-17T12:43:54.229Z,62.60
2022-12-17T12:46:56.423Z,60.93
2022-12-17T12:50:04.148Z,59.60
2022-12-17T12:52:55.657Z,43.77
2022-12-17T12:55:59.928Z,42.97
2022-12-17T12:58:52.464Z,56.73
2022-12-17T13:01:53.074Z,75.90
2022-12-17T13:04:51.905Z,47.67
2022-12-17T13:07:27.407Z,50.10
2022-12-17T13:09:59.609Z,44.80
2022-12-17T13:12:59.125Z,44.13
2022-12-17T13:15:37.781Z,57.57
2022-12-17T13:18:20.895Z,49.97
2022-12-17T13:21:06.670Z,60.23
2022-12-17T13:23:39.238Z,56.07
2022-12-17T13:26:24.612Z,51.77
2022-12-17T13:28:56.331Z,51.30
2022-12-17T13:31:44.064Z,65.87
2022-12-17T13:34:44.840Z,56.27
2022-12-17T13:37:29.097Z,68.33
2022-12-17T13:40:19.996Z,66.17
2022-12-17T13:42:51.845Z,52.20
2022-12-17T13:45:26.275Z,54.40
2022-12-17T13:47:59.203Z,49.70
2022-12-17T13:50:34.336Z,61.90
2022-12-17T13:53:12.209Z,57.53
2022-12-17T13:55:50.743Z,46.67
2022-12-17T13:58:26.057Z,55.63
2022-12-17T14:01:26.319Z,48.53
2022-12-17T14:04:07.890Z,64.50
2022-12-17T14:06:39.907Z,63.03
2022-12-17T14:09:18.130Z,55.00
2022-12-17T14:12:09.025Z,69.00
2022-12-17T14:14:44.230Z,49.40
2022-12-17T14:17:22.100Z,52.50
2022-12-17T14:19:59.363Z,69.90
2022-12-17T14:22:44.993Z,53.70
2022-12-17T14:25:24.678Z,60.47
2022-12-17T14:28:05.080Z,50.93
2022-12-17T14:31:02.682Z,54.60
2022-12-17T14:33:34.433Z,53.60
2022-12-17T14:36:17.372Z,56.05
2022-12-17T14:39:00.496Z,67.33
2022-12-17T14:41:57.137Z,70.67
2022-12-17T14:44:30.410Z,72.83
2022-12-17T14:47:28.303Z,64.70
2022-12-17T14:50:12.196Z,64.77
2022-12-17T14:52:54.574Z,52.63
2022-12-17T14:55:39.289Z,78.40
2022-12-17T14:58:13.875Z,113.80
2022-12-17T15:01:06.104Z,97.93
2022-12-17T15:03:43.739Z,57.47
2022-12-17T15:06:19.654Z,69.13
2022-12-17T15:08:53.204Z,59.87
2022-12-17T15:11:25.276Z,66.17
2022-12-17T15:13:57.046Z,63.70
2022-12-17T15:16:28.920Z,62.80
2022-12-17T15:19:01.184Z,54.23
2022-12-17T15:21:33.020Z,81.40
2022-12-17T15:24:07.097Z,58.50
2022-12-17T15:26:38.802Z,89.53
2022-12-17T15:29:10.537Z,61.23
2022-12-17T15:31:42.330Z,69.90
2022-12-17T15:34:14.119Z,91.67
2022-12-17T15:36:45.796Z,57.83
2022-12-17T15:39:17.514Z,61.50
2022-12-17T15:42:07.638Z,67.77
2022-12-17T15:44:39.351Z,94.83
2022-12-17T15:47:11.209Z,80.23
2022-12-17T15:49:44.682Z,81.60
2022-12-17T15:52:16.414Z,101.32
2022-12-17T15:54:49.292Z,110.63
2022-12-17T15:57:21.050Z,78.87
2022-12-17T15:59:52.779Z,88.13
2022-12-17T16:02:24.626Z,79.83
2022-12-17T16:04:56.598Z,103.60
2022-12-17T16:07:28.547Z,79.20
2022-12-17T16:10:04.872Z,95.60
2022-12-17T16:12:37.009Z,91.90
2022-12-17T16:15:10.038Z,82.70
2022-12-17T16:17:41.735Z,63.70
2022-12-17T16:20:13.398Z,73.87
2022-12-17T16:22:45.303Z,78.20
2022-12-17T16:25:17.021Z,92.70
2022-12-17T16:27:48.904Z,109.83
2022-12-17T16:30:20.882Z,133.00
2022-12-17T16:32:52.637Z,120.97
2022-12-17T16:35:24.806Z,76.60
2022-12-17T16:37:56.599Z,78.93
2022-12-17T16:40:29.118Z,67.97
2022-12-17T16:43:00.895Z,78.50
2022-12-17T16:45:32.571Z,176.10
2022-12-17T16:48:04.322Z,108.43
2022-12-17T16:50:36.054Z,89.07
2022-12-17T16:53:07.972Z,122.23
2022-12-17T16:55:48.203Z,149.63
2022-12-17T16:58:19.943Z,104.57
2022-12-17T17:00:54.676Z,94.87
2022-12-17T17:03:26.469Z,107.00
2022-12-17T17:06:02.699Z,93.87
2022-12-17T17:08:39.166Z,95.67
2022-12-17T17:11:23.956Z,107.13
2022-12-17T17:13:55.715Z,98.77
2022-12-17T17:16:27.835Z,75.83
2022-12-17T17:18:59.652Z,104.60
2022-12-17T17:21:34.265Z,75.70
2022-12-17T17:24:18.491Z,111.90
2022-12-17T17:26:53.870Z,94.57
2022-12-17T17:29:25.629Z,78.10
2022-12-17T17:32:13.256Z,91.80
2022-12-17T17:34:45.404Z,72.47
2022-12-17T17:37:17.265Z,96.60
2022-12-17T17:39:48.917Z,84.07
2022-12-17T17:42:20.715Z,80.30
2022-12-17T17:44:52.438Z,79.13
2022-12-17T17:47:24.209Z,96.73
2022-12-17T17:49:55.993Z,78.63
2022-12-17T17:52:27.725Z,86.37
2022-12-17T17:54:59.438Z,63.93
2022-12-17T17:57:31.124Z,81.13
2022-12-17T18:00:02.910Z,60.60
2022-12-17T18:02:34.796Z,88.23
2022-12-17T18:05:06.782Z,64.07
2022-12-17T18:07:38.495Z,49.10
2022-12-17T18:10:10.295Z,65.33
2022-12-17T18:13:00.583Z,69.07
2022-12-17T18:15:32.273Z,64.13
2022-12-17T18:18:04.464Z,86.90
2022-12-17T18:20:37.275Z,59.93
2022-12-17T18:23:09.033Z,72.83
2022-12-17T18:25:40.765Z,60.87
2022-12-17T18:28:12.448Z,68.57
2022-12-17T18:30:45.254Z,61.70
2022-12-17T18:33:17.011Z,59.83
2022-12-17T18:35:48.698Z,65.23
2022-12-17T18:38:20.365Z,67.27
2022-12-17T18:40:52.129Z,65.40
2022-12-17T18:43:23.849Z,83.70
2022-12-17T18:45:55.574Z,79.20
2022-12-17T18:48:29.729Z,64.10
2022-12-17T18:51:05.759Z,80.67
2022-12-17T18:53:37.562Z,77.30
2022-12-17T18:56:10.880Z,56.23
2022-12-17T18:58:43.565Z,53.43
2022-12-17T19:01:25.176Z,57.27
2022-12-17T19:04:02.383Z,68.75
2022-12-17T19:06:36.685Z,71.37
2022-12-17T19:09:08.925Z,133.88
2022-12-17T19:11:43.556Z,103.23
2022-12-17T19:14:17.269Z,82.60
2022-12-17T19:16:51.065Z,67.93
2022-12-17T19:19:24.100Z,49.53
2022-12-17T19:21:56.547Z,55.03
2022-12-17T19:24:28.601Z,60.80
2022-12-17T19:27:00.334Z,74.53
2022-12-17T19:29:32.103Z,92.25
2022-12-17T19:32:04.078Z,79.88
2022-12-17T19:34:35.798Z,78.53
2022-12-17T19:37:07.572Z,81.35
2022-12-17T19:39:39.243Z,77.87
2022-12-17T19:42:24.731Z,54.73
2022-12-17T19:44:56.823Z,75.60
2022-12-17T19:47:30.551Z,71.47
2022-12-17T19:50:02.368Z,80.13
2022-12-17T19:52:34.165Z,81.13
2022-12-17T19:55:06.105Z,78.03
2022-12-17T19:57:37.834Z,69.20
2022-12-17T20:00:10.257Z,65.73
2022-12-17T20:02:41.990Z,74.77
2022-12-17T20:05:13.803Z,68.22
2022-12-17T20:07:45.486Z,67.27
2022-12-17T20:10:17.230Z,62.17
2022-12-17T20:12:48.961Z,53.00
2022-12-17T20:15:20.741Z,50.07
2022-12-17T20:17:52.440Z,67.40
2022-12-17T20:20:24.209Z,54.83
2022-12-17T20:22:55.946Z,73.70
2022-12-17T20:25:27.885Z,73.85
2022-12-17T20:27:59.597Z,58.23
2022-12-17T20:30:31.397Z,70.43
2022-12-17T20:33:03.109Z,51.77
2022-12-17T20:35:39.599Z,58.50
2022-12-17T20:38:11.257Z,64.67
2022-12-17T20:40:43.146Z,65.93
2022-12-17T20:43:15.179Z,62.87
2022-12-17T20:45:51.068Z,74.40
2022-12-17T20:48:23.745Z,55.47
2022-12-17T20:50:55.502Z,61.33
2022-12-17T20:53:27.209Z,56.73
2022-12-17T20:56:07.900Z,59.97
2022-12-17T20:58:41.120Z,76.23
2022-12-17T21:01:18.673Z,61.83
2022-12-17T21:03:51.720Z,55.30
2022-12-17T21:06:32.187Z,62.53
2022-12-17T21:09:04.544Z,55.97
2022-12-17T21:11:38.169Z,61.10
2022-12-17T21:14:13.161Z,63.43
2022-12-17T21:16:45.446Z,72.70
2022-12-17T21:19:20.132Z,57.03
2022-12-17T21:21:52.117Z,66.10
2022-12-17T21:24:23.911Z,65.20
2022-12-17T21:26:55.619Z,45.57
2022-12-17T21:29:27.463Z,56.07
2022-12-17T21:31:59.459Z,51.00
2022-12-17T21:34:32.487Z,42.87
2022-12-17T21:37:04.984Z,49.50
2022-12-17T21:39:41.221Z,41.20
2022-12-17T21:42:31.561Z,46.83
2022-12-17T21:45:03.647Z,37.67
2022-12-17T21:47:35.582Z,40.23
2022-12-17T21:50:07.509Z,39.87
2022-12-17T21:52:39.177Z,42.90
2022-12-17T21:55:11.002Z,39.10
2022-12-17T21:57:43.420Z,51.05
2022-12-17T22:00:15.748Z,49.70
2022-12-17T22:02:47.862Z,36.67
2022-12-17T22:05:19.760Z,39.38
2022-12-17T22:07:52.315Z,51.60
2022-12-17T22:10:35.675Z,48.53
2022-12-17T22:13:34.902Z,39.70
2022-12-17T22:16:07.552Z,36.57
2022-12-17T22:18:40.899Z,34.60
2022-12-17T22:21:12.936Z,39.50
2022-12-17T22:23:51.134Z,31.73
2022-12-17T22:26:23.317Z,37.60
2022-12-17T22:28:55.503Z,43.97
2022-12-17T22:31:46.112Z,37.17
2022-12-17T22:35:37.873Z,36.73
2022-12-17T22:40:40.377Z,30.47
2022-12-17T22:44:34.338Z,28.80
2022-12-17T22:44:36.806Z,31.38
2022-12-17T22:46:05.452Z,28.93
2022-12-17T22:48:37.542Z,34.47
2022-12-17T22:51:11.772Z,33.00
2022-12-17T22:53:50.639Z,32.37
2022-12-17T22:56:38.849Z,25.57
2022-12-17T22:59:17.917Z,38.17
2022-12-17T23:01:49.667Z,34.37
2022-12-17T23:04:21.526Z,37.92
2022-12-17T23:06:53.289Z,31.70
2022-12-17T23:09:24.938Z,38.20
2022-12-17T23:11:56.702Z,40.53
2022-12-17T23:14:28.389Z,40.33
2022-12-17T23:17:00.197Z,43.90
2022-12-17T23:19:31.898Z,52.27
2022-12-17T23:22:03.601Z,51.97
2022-12-17T23:24:35.325Z,43.93
2022-12-17T23:27:07.021Z,49.93
2022-12-17T23:29:38.702Z,48.23
2022-12-17T23:32:10.476Z,48.83
2022-12-17T23:34:42.553Z,69.80
2022-12-17T23:37:14.212Z,55.20
2022-12-17T23:39:45.847Z,33.87
2022-12-17T23:42:17.571Z,40.80
2022-12-17T23:44:49.309Z,38.20
2022-12-17T23:47:21.256Z,31.97
2022-12-17T23:49:52.933Z,30.40
2022-12-17T23:52:24.834Z,31.77
2022-12-17T23:54:56.604Z,34.40
2022-12-17T23:57:28.478Z,29.33
